sensor_id;sensor_type;location;lat;lon;timestamp;temperature;humidity
61374;DHT22;47242;48.158;-1.586;2023-04-03T04:30:17;6.60;69.50
61374;DHT22;47242;48.158;-1.586;2023-04-03T04:32:43;6.60;69.60
61374;DHT22;47242;48.158;-1.586;2023-04-03T04:35:08;6.60;69.60
61374;DHT22;47242;48.158;-1.586;2023-04-03T04:37:35;6.60;69.50
61374;DHT22;47242;48.158;-1.586;2023-04-03T04:40:00;6.50;69.50
61374;DHT22;47242;48.158;-1.586;2023-04-03T04:42:26;6.50;69.60
61374;DHT22;47242;48.158;-1.586;2023-04-03T04:44:52;6.60;69.40
61374;DHT22;47242;48.158;-1.586;2023-04-03T04:47:17;6.60;69.30
61374;DHT22;47242;48.158;-1.586;2023-04-03T04:49:43;6.50;69.50
61374;DHT22;47242;48.158;-1.586;2023-04-03T04:52:08;6.50;69.40
61374;DHT22;47242;48.158;-1.586;2023-04-03T04:54:34;6.50;69.30
61374;DHT22;47242;48.158;-1.586;2023-04-03T04:57:00;6.60;69.20
61374;DHT22;47242;48.158;-1.586;2023-04-03T04:59:26;6.60;69.30
61374;DHT22;47242;48.158;-1.586;2023-04-03T05:01:51;6.60;69.20
61374;DHT22;47242;48.158;-1.586;2023-04-03T05:04:17;6.60;69.30
61374;DHT22;47242;48.158;-1.586;2023-04-03T05:06:42;6.60;69.20
61374;DHT22;47242;48.158;-1.586;2023-04-03T05:09:08;6.60;69.20
61374;DHT22;47242;48.158;-1.586;2023-04-03T05:11:35;6.60;69.20
61374;DHT22;47242;48.158;-1.586;2023-04-03T05:14:00;6.60;69.10
61374;DHT22;47242;48.158;-1.586;2023-04-03T05:16:26;6.60;69.20
61374;DHT22;47242;48.158;-1.586;2023-04-03T05:18:52;6.60;69.00
61374;DHT22;47242;48.158;-1.586;2023-04-03T05:21:17;6.60;69.10
61374;DHT22;47242;48.158;-1.586;2023-04-03T05:23:48;6.60;69.30
61374;DHT22;47242;48.158;-1.586;2023-04-03T05:26:14;6.60;69.20
61374;DHT22;47242;48.158;-1.586;2023-04-03T05:28:39;6.60;69.10
61374;DHT22;47242;48.158;-1.586;2023-04-03T05:31:05;6.60;69.00
61374;DHT22;47242;48.158;-1.586;2023-04-03T05:33:31;6.60;69.10
61374;DHT22;47242;48.158;-1.586;2023-04-03T05:36:04;6.70;68.90
61374;DHT22;47242;48.158;-1.586;2023-04-03T05:38:31;6.70;68.90
61374;DHT22;47242;48.158;-1.586;2023-04-03T05:40:57;6.70;69.10
61374;DHT22;47242;48.158;-1.586;2023-04-03T05:43:22;6.70;69.20
61374;DHT22;47242;48.158;-1.586;2023-04-03T05:45:48;6.70;69.10
61374;DHT22;47242;48.158;-1.586;2023-04-03T05:48:14;6.70;69.20
61374;DHT22;47242;48.158;-1.586;2023-04-03T05:50:39;6.70;69.10
61374;DHT22;47242;48.158;-1.586;2023-04-03T05:53:15;6.60;69.20
61374;DHT22;47242;48.158;-1.586;2023-04-03T05:55:42;6.60;69.00
61374;DHT22;47242;48.158;-1.586;2023-04-03T05:58:08;6.60;68.80
61374;DHT22;47242;48.158;-1.586;2023-04-03T06:00:33;6.60;68.80
61374;DHT22;47242;48.158;-1.586;2023-04-03T06:02:59;6.60;68.70
61374;DHT22;47242;48.158;-1.586;2023-04-03T06:05:25;6.60;68.80
61374;DHT22;47242;48.158;-1.586;2023-04-03T06:07:50;6.60;68.90
61374;DHT22;47242;48.158;-1.586;2023-04-03T06:10:16;6.60;68.70
61374;DHT22;47242;48.158;-1.586;2023-04-03T06:12:42;6.70;68.70
61374;DHT22;47242;48.158;-1.586;2023-04-03T06:15:08;6.70;68.50
61374;DHT22;47242;48.158;-1.586;2023-04-03T06:17:36;6.70;68.40
61374;DHT22;47242;48.158;-1.586;2023-04-03T06:20:03;6.70;68.20
61374;DHT22;47242;48.158;-1.586;2023-04-03T06:22:29;6.70;68.40
61374;DHT22;47242;48.158;-1.586;2023-04-03T06:24:55;6.70;68.10
61374;DHT22;47242;48.158;-1.586;2023-04-03T06:27:21;6.70;67.90
61374;DHT22;47242;48.158;-1.586;2023-04-03T06:29:47;6.70;67.90
61374;DHT22;47242;48.158;-1.586;2023-04-03T06:32:14;6.80;68.10
61374;DHT22;47242;48.158;-1.586;2023-04-03T06:34:40;6.80;68.10
61374;DHT22;47242;48.158;-1.586;2023-04-03T06:37:10;6.90;67.80
61374;DHT22;47242;48.158;-1.586;2023-04-03T06:39:36;6.90;67.90
61374;DHT22;47242;48.158;-1.586;2023-04-03T06:42:01;7.00;67.80
61374;DHT22;47242;48.158;-1.586;2023-04-03T06:44:27;7.00;67.90
61374;DHT22;47242;48.158;-1.586;2023-04-03T06:46:53;7.10;67.70
61374;DHT22;47242;48.158;-1.586;2023-04-03T06:49:19;7.10;67.80
61374;DHT22;47242;48.158;-1.586;2023-04-03T06:51:45;7.00;67.50
61374;DHT22;47242;48.158;-1.586;2023-04-03T06:54:10;7.00;67.30
61374;DHT22;47242;48.158;-1.586;2023-04-03T06:56:36;7.00;67.00
61374;DHT22;47242;48.158;-1.586;2023-04-03T06:59:02;7.00;67.00
61374;DHT22;47242;48.158;-1.586;2023-04-03T07:01:29;7.00;67.00
61374;DHT22;47242;48.158;-1.586;2023-04-03T07:03:55;7.10;67.00
61374;DHT22;47242;48.158;-1.586;2023-04-03T07:06:21;7.20;67.00
61374;DHT22;47242;48.158;-1.586;2023-04-03T07:08:47;7.20;66.90
61374;DHT22;47242;48.158;-1.586;2023-04-03T07:11:15;7.20;66.90
61374;DHT22;47242;48.158;-1.586;2023-04-03T07:13:40;7.10;66.70
61374;DHT22;47242;48.158;-1.586;2023-04-03T07:16:07;7.10;66.50
61374;DHT22;47242;48.158;-1.586;2023-04-03T07:18:34;7.10;66.90
61374;DHT22;47242;48.158;-1.586;2023-04-03T07:21:00;7.10;66.50
61374;DHT22;47242;48.158;-1.586;2023-04-03T07:23:25;7.00;66.60
61374;DHT22;47242;48.158;-1.586;2023-04-03T07:25:52;7.10;66.60
61374;DHT22;47242;48.158;-1.586;2023-04-03T07:28:18;7.20;66.30
61374;DHT22;47242;48.158;-1.586;2023-04-03T07:30:46;7.20;65.80
61374;DHT22;47242;48.158;-1.586;2023-04-03T07:33:14;7.20;66.40
61374;DHT22;47242;48.158;-1.586;2023-04-03T07:35:40;7.30;66.00
61374;DHT22;47242;48.158;-1.586;2023-04-03T07:38:06;7.30;66.00
61374;DHT22;47242;48.158;-1.586;2023-04-03T07:40:32;7.40;65.90
61374;DHT22;47242;48.158;-1.586;2023-04-03T07:42:58;7.50;65.70
61374;DHT22;47242;48.158;-1.586;2023-04-03T07:45:25;7.20;64.80
61374;DHT22;47242;48.158;-1.586;2023-04-03T07:47:50;7.20;66.20
61374;DHT22;47242;48.158;-1.586;2023-04-03T07:50:17;7.30;66.30
61374;DHT22;47242;48.158;-1.586;2023-04-03T07:52:43;7.50;65.90
61374;DHT22;47242;48.158;-1.586;2023-04-03T07:55:09;7.50;65.20
61374;DHT22;47242;48.158;-1.586;2023-04-03T07:57:34;7.50;65.30
61374;DHT22;47242;48.158;-1.586;2023-04-03T08:00:01;7.60;65.50
61374;DHT22;47242;48.158;-1.586;2023-04-03T08:02:26;7.60;65.30
61374;DHT22;47242;48.158;-1.586;2023-04-03T08:04:52;7.70;65.70
61374;DHT22;47242;48.158;-1.586;2023-04-03T08:07:18;7.70;65.80
61374;DHT22;47242;48.158;-1.586;2023-04-03T08:09:43;7.70;65.80
61374;DHT22;47242;48.158;-1.586;2023-04-03T08:12:10;7.60;66.30
61374;DHT22;47242;48.158;-1.586;2023-04-03T08:14:37;7.40;66.10
61374;DHT22;47242;48.158;-1.586;2023-04-03T08:17:03;7.50;66.40
61374;DHT22;47242;48.158;-1.586;2023-04-03T08:19:30;7.30;66.80
61374;DHT22;47242;48.158;-1.586;2023-04-03T08:21:56;7.50;67.50
61374;DHT22;47242;48.158;-1.586;2023-04-03T08:24:24;7.60;66.70
61374;DHT22;47242;48.158;-1.586;2023-04-03T08:26:49;7.70;66.60
61374;DHT22;47242;48.158;-1.586;2023-04-03T08:29:15;7.60;66.50
61374;DHT22;47242;48.158;-1.586;2023-04-03T08:31:41;7.70;66.90
61374;DHT22;47242;48.158;-1.586;2023-04-03T08:34:06;7.70;66.70
61374;DHT22;47242;48.158;-1.586;2023-04-03T08:36:32;7.80;66.50
61374;DHT22;47242;48.158;-1.586;2023-04-03T08:38:57;7.80;66.70
61374;DHT22;47242;48.158;-1.586;2023-04-03T08:49:48;7.90;66.50
61374;DHT22;47242;48.158;-1.586;2023-04-03T08:55:00;7.70;67.70
61374;DHT22;47242;48.158;-1.586;2023-04-03T08:57:44;7.40;67.30
61374;DHT22;47242;48.158;-1.586;2023-04-03T09:03:10;7.20;68.90
61374;DHT22;47242;48.158;-1.586;2023-04-03T09:11:12;7.70;68.00
61374;DHT22;47242;48.158;-1.586;2023-04-03T09:16:32;7.80;68.20
61374;DHT22;47242;48.158;-1.586;2023-04-03T09:19:25;8.00;67.60
61374;DHT22;47242;48.158;-1.586;2023-04-03T09:22:07;8.20;66.80
61374;DHT22;47242;48.158;-1.586;2023-04-03T09:24:35;8.10;66.90
61374;DHT22;47242;48.158;-1.586;2023-04-03T09:27:05;8.20;67.20
61374;DHT22;47242;48.158;-1.586;2023-04-03T09:29:38;8.30;66.80
61374;DHT22;47242;48.158;-1.586;2023-04-03T09:32:27;8.40;66.70
61374;DHT22;47242;48.158;-1.586;2023-04-03T09:34:56;8.50;66.50
61374;DHT22;47242;48.158;-1.586;2023-04-03T09:37:58;8.60;66.20
61374;DHT22;47242;48.158;-1.586;2023-04-03T09:42:58;8.30;65.30
61374;DHT22;47242;48.158;-1.586;2023-04-03T09:45:30;8.50;66.30
61374;DHT22;47242;48.158;-1.586;2023-04-03T09:48:16;8.60;65.60
61374;DHT22;47242;48.158;-1.586;2023-04-03T09:50:59;8.70;64.90
61374;DHT22;47242;48.158;-1.586;2023-04-03T09:53:41;8.30;64.70
61374;DHT22;47242;48.158;-1.586;2023-04-03T09:58:47;8.60;65.30
61374;DHT22;47242;48.158;-1.586;2023-04-03T10:01:41;8.60;64.70
61374;DHT22;47242;48.158;-1.586;2023-04-03T10:06:36;8.60;64.30
61374;DHT22;47242;48.158;-1.586;2023-04-03T10:14:36;8.60;64.60
61374;DHT22;47242;48.158;-1.586;2023-04-03T10:17:18;8.80;65.30
61374;DHT22;47242;48.158;-1.586;2023-04-03T10:19:55;8.80;64.80
61374;DHT22;47242;48.158;-1.586;2023-04-03T10:25:31;9.00;64.00
61374;DHT22;47242;48.158;-1.586;2023-04-03T10:28:02;9.20;64.30
61374;DHT22;47242;48.158;-1.586;2023-04-03T10:30:48;9.20;62.40
61374;DHT22;47242;48.158;-1.586;2023-04-03T10:36:24;9.70;60.40
61374;DHT22;47242;48.158;-1.586;2023-04-03T10:47:32;10.70;56.30
61374;DHT22;47242;48.158;-1.586;2023-04-03T10:55:36;11.50;56.50
61374;DHT22;47242;48.158;-1.586;2023-04-03T10:58:05;11.00;55.00
61374;DHT22;47242;48.158;-1.586;2023-04-03T11:00:47;11.20;56.60
61374;DHT22;47242;48.158;-1.586;2023-04-03T11:03:26;11.00;54.50
61374;DHT22;47242;48.158;-1.586;2023-04-03T11:05:55;11.00;55.70
61374;DHT22;47242;48.158;-1.586;2023-04-03T11:08:33;11.10;56.20
61374;DHT22;47242;48.158;-1.586;2023-04-03T11:11:47;11.00;55.80
61374;DHT22;47242;48.158;-1.586;2023-04-03T11:16:43;11.20;54.70
61374;DHT22;47242;48.158;-1.586;2023-04-03T11:19:17;11.30;54.30
61374;DHT22;47242;48.158;-1.586;2023-04-03T11:22:25;11.40;55.10
61374;DHT22;47242;48.158;-1.586;2023-04-03T11:25:08;11.60;55.50
61374;DHT22;47242;48.158;-1.586;2023-04-03T11:33:10;11.10;56.00
61374;DHT22;47242;48.158;-1.586;2023-04-03T11:35:47;11.10;56.50
61374;DHT22;47242;48.158;-1.586;2023-04-03T11:38:26;11.00;55.20
61374;DHT22;47242;48.158;-1.586;2023-04-03T11:40:55;10.90;56.10
61374;DHT22;47242;48.158;-1.586;2023-04-03T11:43:23;10.80;55.10
61374;DHT22;47242;48.158;-1.586;2023-04-03T11:46:04;11.00;57.00
61374;DHT22;47242;48.158;-1.586;2023-04-03T11:53:40;11.00;56.00
61374;DHT22;47242;48.158;-1.586;2023-04-03T11:56:32;11.10;57.20
61374;DHT22;47242;48.158;-1.586;2023-04-03T12:01:57;11.30;56.20
61374;DHT22;47242;48.158;-1.586;2023-04-03T12:04:27;11.20;56.00
61374;DHT22;47242;48.158;-1.586;2023-04-03T12:07:16;11.20;56.30
61374;DHT22;47242;48.158;-1.586;2023-04-03T12:12:31;10.70;56.20
61374;DHT22;47242;48.158;-1.586;2023-04-03T12:15:21;10.90;57.90
61374;DHT22;47242;48.158;-1.586;2023-04-03T12:17:47;11.10;57.20
61374;DHT22;47242;48.158;-1.586;2023-04-03T12:23:26;11.60;55.80
61374;DHT22;47242;48.158;-1.586;2023-04-03T12:26:00;11.70;56.30
61374;DHT22;47242;48.158;-1.586;2023-04-03T12:28:28;11.60;54.40
61374;DHT22;47242;48.158;-1.586;2023-04-03T12:30:54;11.50;54.40
61374;DHT22;47242;48.158;-1.586;2023-04-03T12:33:36;11.70;56.50
61374;DHT22;47242;48.158;-1.586;2023-04-03T12:36:18;11.80;55.50
61374;DHT22;47242;48.158;-1.586;2023-04-03T12:38:52;11.70;53.60
61374;DHT22;47242;48.158;-1.586;2023-04-03T12:41:41;11.50;53.50
61374;DHT22;47242;48.158;-1.586;2023-04-03T12:44:23;11.80;55.60
61374;DHT22;47242;48.158;-1.586;2023-04-03T12:46:52;11.80;54.60
61374;DHT22;47242;48.158;-1.586;2023-04-03T12:51:56;11.80;54.90
61374;DHT22;47242;48.158;-1.586;2023-04-03T12:54:39;11.60;55.20
61374;DHT22;47242;48.158;-1.586;2023-04-03T12:57:16;11.70;55.70
61374;DHT22;47242;48.158;-1.586;2023-04-03T12:59:43;11.90;56.30
61374;DHT22;47242;48.158;-1.586;2023-04-03T13:02:31;12.10;57.00
61374;DHT22;47242;48.158;-1.586;2023-04-03T13:04:58;12.20;56.30
61374;DHT22;47242;48.158;-1.586;2023-04-03T13:07:26;12.20;55.20
61374;DHT22;47242;48.158;-1.586;2023-04-03T13:10:09;12.20;55.50
61374;DHT22;47242;48.158;-1.586;2023-04-03T13:12:52;12.00;54.60
61374;DHT22;47242;48.158;-1.586;2023-04-03T13:15:27;12.10;57.10
61374;DHT22;47242;48.158;-1.586;2023-04-03T13:17:54;12.20;55.40
61374;DHT22;47242;48.158;-1.586;2023-04-03T13:20:32;12.30;55.70
61374;DHT22;47242;48.158;-1.586;2023-04-03T13:23:05;12.30;56.30
61374;DHT22;47242;48.158;-1.586;2023-04-03T13:25:35;12.20;54.80
61374;DHT22;47242;48.158;-1.586;2023-04-03T13:28:05;12.20;54.40
61374;DHT22;47242;48.158;-1.586;2023-04-03T13:30:35;12.20;55.20
61374;DHT22;47242;48.158;-1.586;2023-04-03T13:33:04;12.40;55.40
61374;DHT22;47242;48.158;-1.586;2023-04-03T13:35:37;12.50;55.20
61374;DHT22;47242;48.158;-1.586;2023-04-03T13:38:23;12.70;55.50
61374;DHT22;47242;48.158;-1.586;2023-04-03T13:40:52;12.80;55.00
61374;DHT22;47242;48.158;-1.586;2023-04-03T13:43:21;12.80;54.90
61374;DHT22;47242;48.158;-1.586;2023-04-03T13:46:05;12.70;53.70
61374;DHT22;47242;48.158;-1.586;2023-04-03T13:48:38;12.90;54.80
61374;DHT22;47242;48.158;-1.586;2023-04-03T13:53:48;12.50;53.70
61374;DHT22;47242;48.158;-1.586;2023-04-03T13:56:25;12.40;52.80
61374;DHT22;47242;48.158;-1.586;2023-04-03T13:58:59;12.40;54.30
61374;DHT22;47242;48.158;-1.586;2023-04-03T14:01:25;12.60;54.00
61374;DHT22;47242;48.158;-1.586;2023-04-03T14:04:09;12.80;54.40
61374;DHT22;47242;48.158;-1.586;2023-04-03T14:06:35;13.00;55.00
61374;DHT22;47242;48.158;-1.586;2023-04-03T14:09:01;13.20;53.70
61374;DHT22;47242;48.158;-1.586;2023-04-03T14:11:29;13.30;53.20
61374;DHT22;47242;48.158;-1.586;2023-04-03T14:13:58;13.30;52.90
61374;DHT22;47242;48.158;-1.586;2023-04-03T14:16:29;13.20;53.60
61374;DHT22;47242;48.158;-1.586;2023-04-03T14:18:56;13.20;52.60
61374;DHT22;47242;48.158;-1.586;2023-04-03T14:21:22;13.00;52.30
61374;DHT22;47242;48.158;-1.586;2023-04-03T14:23:48;13.10;52.60
61374;DHT22;47242;48.158;-1.586;2023-04-03T14:26:17;13.20;52.50
61374;DHT22;47242;48.158;-1.586;2023-04-03T14:28:45;13.30;52.40
61374;DHT22;47242;48.158;-1.586;2023-04-03T14:31:13;13.40;52.20
61374;DHT22;47242;48.158;-1.586;2023-04-03T14:33:39;13.40;52.10
61374;DHT22;47242;48.158;-1.586;2023-04-03T14:36:16;13.40;52.80
61374;DHT22;47242;48.158;-1.586;2023-04-03T14:38:43;13.40;53.50
61374;DHT22;47242;48.158;-1.586;2023-04-03T14:41:14;13.20;51.60
61374;DHT22;47242;48.158;-1.586;2023-04-03T14:43:41;13.20;53.90
61374;DHT22;47242;48.158;-1.586;2023-04-03T14:46:16;13.20;51.50
61374;DHT22;47242;48.158;-1.586;2023-04-03T14:48:42;13.20;52.60
61374;DHT22;47242;48.158;-1.586;2023-04-03T14:51:11;13.20;51.70
61374;DHT22;47242;48.158;-1.586;2023-04-03T14:53:37;12.90;52.00
61374;DHT22;47242;48.158;-1.586;2023-04-03T14:56:14;12.90;51.90
61374;DHT22;47242;48.158;-1.586;2023-04-03T14:58:41;13.10;52.80
61374;DHT22;47242;48.158;-1.586;2023-04-03T15:01:08;13.20;52.60
61374;DHT22;47242;48.158;-1.586;2023-04-03T15:03:34;13.40;52.80
61374;DHT22;47242;48.158;-1.586;2023-04-03T15:06:00;13.40;51.70
61374;DHT22;47242;48.158;-1.586;2023-04-03T15:08:27;13.30;50.50
61374;DHT22;47242;48.158;-1.586;2023-04-03T15:10:55;13.30;52.30
61374;DHT22;47242;48.158;-1.586;2023-04-03T15:13:22;13.30;51.10
61374;DHT22;47242;48.158;-1.586;2023-04-03T15:15:49;13.30;51.50
61374;DHT22;47242;48.158;-1.586;2023-04-03T15:18:20;13.30;50.40
61374;DHT22;47242;48.158;-1.586;2023-04-03T15:20:47;13.50;50.10
61374;DHT22;47242;48.158;-1.586;2023-04-03T15:23:14;13.50;50.60
61374;DHT22;47242;48.158;-1.586;2023-04-03T15:25:42;13.30;49.80
61374;DHT22;47242;48.158;-1.586;2023-04-03T15:28:19;13.30;50.80
61374;DHT22;47242;48.158;-1.586;2023-04-03T15:30:47;13.20;50.10
61374;DHT22;47242;48.158;-1.586;2023-04-03T15:33:13;13.00;50.90
61374;DHT22;47242;48.158;-1.586;2023-04-03T15:35:38;13.30;52.70
61374;DHT22;47242;48.158;-1.586;2023-04-03T15:38:04;13.40;51.60
61374;DHT22;47242;48.158;-1.586;2023-04-03T15:40:30;13.50;51.50
61374;DHT22;47242;48.158;-1.586;2023-04-03T15:42:55;13.60;51.60
61374;DHT22;47242;48.158;-1.586;2023-04-03T15:45:21;13.70;51.90
61374;DHT22;47242;48.158;-1.586;2023-04-03T15:47:47;13.70;51.10
61374;DHT22;47242;48.158;-1.586;2023-04-03T15:50:13;13.70;51.70
61374;DHT22;47242;48.158;-1.586;2023-04-03T15:52:38;13.70;51.70
61374;DHT22;47242;48.158;-1.586;2023-04-03T15:55:05;13.70;51.80
61374;DHT22;47242;48.158;-1.586;2023-04-03T15:57:31;13.70;50.50
61374;DHT22;47242;48.158;-1.586;2023-04-03T15:59:57;13.70;51.20
61374;DHT22;47242;48.158;-1.586;2023-04-03T16:02:22;13.60;50.70
61374;DHT22;47242;48.158;-1.586;2023-04-03T16:04:49;13.60;51.30
61374;DHT22;47242;48.158;-1.586;2023-04-03T16:07:14;13.70;51.70
61374;DHT22;47242;48.158;-1.586;2023-04-03T16:09:40;13.70;52.00
61374;DHT22;47242;48.158;-1.586;2023-04-03T16:12:06;13.60;51.30
61374;DHT22;47242;48.158;-1.586;2023-04-03T16:14:31;13.60;52.10
61374;DHT22;47242;48.158;-1.586;2023-04-03T16:16:58;13.60;52.40
61374;DHT22;47242;48.158;-1.586;2023-04-03T16:19:24;13.70;52.30
61374;DHT22;47242;48.158;-1.586;2023-04-03T16:21:50;13.70;51.60
61374;DHT22;47242;48.158;-1.586;2023-04-03T16:24:15;13.60;51.70
61374;DHT22;47242;48.158;-1.586;2023-04-03T16:26:41;13.50;52.20
61374;DHT22;47242;48.158;-1.586;2023-04-03T16:29:06;13.60;52.10
61374;DHT22;47242;48.158;-1.586;2023-04-03T16:31:33;13.60;51.90
61374;DHT22;47242;48.158;-1.586;2023-04-03T16:34:00;13.50;52.60
61374;DHT22;47242;48.158;-1.586;2023-04-03T16:36:26;13.50;52.30
61374;DHT22;47242;48.158;-1.586;2023-04-03T16:38:51;13.50;52.80
61374;DHT22;47242;48.158;-1.586;2023-04-03T16:41:17;13.50;52.70
61374;DHT22;47242;48.158;-1.586;2023-04-03T16:43:43;13.50;52.80
61374;DHT22;47242;48.158;-1.586;2023-04-03T16:46:08;13.50;52.20
61374;DHT22;47242;48.158;-1.586;2023-04-03T16:48:34;13.50;52.10
61374;DHT22;47242;48.158;-1.586;2023-04-03T16:51:00;13.50;52.30
61374;DHT22;47242;48.158;-1.586;2023-04-03T16:53:27;13.50;52.20
61374;DHT22;47242;48.158;-1.586;2023-04-03T16:55:53;13.50;52.30
61374;DHT22;47242;48.158;-1.586;2023-04-03T16:58:19;13.50;52.20
61374;DHT22;47242;48.158;-1.586;2023-04-03T17:00:44;13.40;52.40
61374;DHT22;47242;48.158;-1.586;2023-04-03T17:03:12;13.40;52.40
61374;DHT22;47242;48.158;-1.586;2023-04-03T17:05:38;13.30;52.50
61374;DHT22;47242;48.158;-1.586;2023-04-03T17:08:04;13.30;52.50
61374;DHT22;47242;48.158;-1.586;2023-04-03T17:10:29;13.30;52.40
61374;DHT22;47242;48.158;-1.586;2023-04-03T17:12:55;13.30;52.10
61374;DHT22;47242;48.158;-1.586;2023-04-03T17:15:21;13.30;52.20
61374;DHT22;47242;48.158;-1.586;2023-04-03T17:17:49;13.30;52.40
61374;DHT22;47242;48.158;-1.586;2023-04-03T17:20:16;13.20;52.30
61374;DHT22;47242;48.158;-1.586;2023-04-03T17:22:42;13.20;52.50
61374;DHT22;47242;48.158;-1.586;2023-04-03T17:25:08;13.20;53.20
61374;DHT22;47242;48.158;-1.586;2023-04-03T17:27:37;13.10;53.30
61374;DHT22;47242;48.158;-1.586;2023-04-03T17:30:04;13.10;53.20
61374;DHT22;47242;48.158;-1.586;2023-04-03T17:32:30;13.00;53.20
61374;DHT22;47242;48.158;-1.586;2023-04-03T17:34:56;13.00;53.80
61374;DHT22;47242;48.158;-1.586;2023-04-03T17:37:22;13.00;53.90
61374;DHT22;47242;48.158;-1.586;2023-04-03T17:39:48;13.00;53.90
61374;DHT22;47242;48.158;-1.586;2023-04-03T17:42:14;12.90;54.20
61374;DHT22;47242;48.158;-1.586;2023-04-03T17:44:40;12.90;54.00
61374;DHT22;47242;48.158;-1.586;2023-04-03T17:47:06;12.90;54.20
61374;DHT22;47242;48.158;-1.586;2023-04-03T17:49:31;12.90;53.70
61374;DHT22;47242;48.158;-1.586;2023-04-03T17:51:58;12.80;54.20
61374;DHT22;47242;48.158;-1.586;2023-04-03T17:54:23;12.80;54.60
61374;DHT22;47242;48.158;-1.586;2023-04-03T17:56:49;12.80;54.80
61374;DHT22;47242;48.158;-1.586;2023-04-03T17:59:16;12.70;55.00
61374;DHT22;47242;48.158;-1.586;2023-04-03T18:01:43;12.60;55.40
61374;DHT22;47242;48.158;-1.586;2023-04-03T18:04:09;12.60;55.10
61374;DHT22;47242;48.158;-1.586;2023-04-03T18:06:47;12.60;55.50
61374;DHT22;47242;48.158;-1.586;2023-04-03T18:09:31;12.50;55.50
61374;DHT22;47242;48.158;-1.586;2023-04-03T18:12:00;12.50;55.40
61374;DHT22;47242;48.158;-1.586;2023-04-03T18:14:27;12.40;55.90
61374;DHT22;47242;48.158;-1.586;2023-04-03T18:16:53;12.40;56.00
61374;DHT22;47242;48.158;-1.586;2023-04-03T18:19:22;12.30;56.20
61374;DHT22;47242;48.158;-1.586;2023-04-03T18:21:48;12.30;56.30
61374;DHT22;47242;48.158;-1.586;2023-04-03T18:24:16;12.30;56.40
61374;DHT22;47242;48.158;-1.586;2023-04-03T18:26:44;12.30;56.70
61374;DHT22;47242;48.158;-1.586;2023-04-03T18:29:11;12.20;56.80
61374;DHT22;47242;48.158;-1.586;2023-04-03T18:31:40;12.20;57.10
61374;DHT22;47242;48.158;-1.586;2023-04-03T18:34:08;12.10;57.30
61374;DHT22;47242;48.158;-1.586;2023-04-03T18:36:33;12.10;57.50
61374;DHT22;47242;48.158;-1.586;2023-04-03T18:38:59;12.10;57.90
61374;DHT22;47242;48.158;-1.586;2023-04-03T18:41:28;12.00;58.20
61374;DHT22;47242;48.158;-1.586;2023-04-03T18:43:56;11.90;58.20
61374;DHT22;47242;48.158;-1.586;2023-04-03T18:46:24;11.90;58.40
61374;DHT22;47242;48.158;-1.586;2023-04-03T18:48:50;11.80;58.50
61374;DHT22;47242;48.158;-1.586;2023-04-03T18:51:17;11.80;58.90
61374;DHT22;47242;48.158;-1.586;2023-04-03T18:53:42;11.80;59.50
61374;DHT22;47242;48.158;-1.586;2023-04-03T18:56:08;11.70;60.10
61374;DHT22;47242;48.158;-1.586;2023-04-03T18:58:33;11.70;60.20
61374;DHT22;47242;48.158;-1.586;2023-04-03T19:00:59;11.70;60.10
61374;DHT22;47242;48.158;-1.586;2023-04-03T19:03:26;11.60;60.10
61374;DHT22;47242;48.158;-1.586;2023-04-03T19:05:52;11.60;60.50
61374;DHT22;47242;48.158;-1.586;2023-04-03T19:08:17;11.60;60.60
61374;DHT22;47242;48.158;-1.586;2023-04-03T19:10:43;11.70;60.20
61374;DHT22;47242;48.158;-1.586;2023-04-03T19:13:09;11.60;59.90
61374;DHT22;47242;48.158;-1.586;2023-04-03T19:15:35;11.60;59.80
61374;DHT22;47242;48.158;-1.586;2023-04-03T19:18:00;11.50;59.90
61374;DHT22;47242;48.158;-1.586;2023-04-03T19:20:26;11.60;59.90
61374;DHT22;47242;48.158;-1.586;2023-04-03T19:22:52;11.50;59.80
61374;DHT22;47242;48.158;-1.586;2023-04-03T19:25:19;11.50;59.80
61374;DHT22;47242;48.158;-1.586;2023-04-03T19:27:45;11.50;59.60
61374;DHT22;47242;48.158;-1.586;2023-04-03T19:30:12;11.50;59.60
61374;DHT22;47242;48.158;-1.586;2023-04-03T19:32:38;11.40;59.50
61374;DHT22;47242;48.158;-1.586;2023-04-03T19:35:04;11.40;59.20
61374;DHT22;47242;48.158;-1.586;2023-04-03T19:37:30;11.30;59.00
61374;DHT22;47242;48.158;-1.586;2023-04-03T19:39:56;11.30;59.10
61374;DHT22;47242;48.158;-1.586;2023-04-03T19:42:22;11.20;58.90
61374;DHT22;47242;48.158;-1.586;2023-04-03T19:44:47;11.20;58.90
61374;DHT22;47242;48.158;-1.586;2023-04-03T19:47:14;11.10;59.10
61374;DHT22;47242;48.158;-1.586;2023-04-03T19:49:42;11.10;59.10
61374;DHT22;47242;48.158;-1.586;2023-04-03T19:52:07;11.00;59.10
61374;DHT22;47242;48.158;-1.586;2023-04-03T19:54:33;11.00;59.30
61374;DHT22;47242;48.158;-1.586;2023-04-03T19:56:59;11.00;59.30
61374;DHT22;47242;48.158;-1.586;2023-04-03T19:59:25;11.00;59.10
61374;DHT22;47242;48.158;-1.586;2023-04-03T20:01:51;10.90;59.10
61374;DHT22;47242;48.158;-1.586;2023-04-03T20:04:17;10.80;59.40
61374;DHT22;47242;48.158;-1.586;2023-04-03T20:06:43;10.80;59.50
61374;DHT22;47242;48.158;-1.586;2023-04-03T20:09:08;10.80;59.40
61374;DHT22;47242;48.158;-1.586;2023-04-03T20:11:35;10.80;59.40
61374;DHT22;47242;48.158;-1.586;2023-04-03T20:14:02;10.80;59.50
61374;DHT22;47242;48.158;-1.586;2023-04-03T20:16:28;10.80;59.50
61374;DHT22;47242;48.158;-1.586;2023-04-03T20:18:54;10.80;59.40
61374;DHT22;47242;48.158;-1.586;2023-04-03T20:21:27;10.80;59.50
61374;DHT22;47242;48.158;-1.586;2023-04-03T20:23:54;10.70;59.60
61374;DHT22;47242;48.158;-1.586;2023-04-03T20:26:22;10.70;59.70
61374;DHT22;47242;48.158;-1.586;2023-04-03T20:28:54;10.70;59.70
61374;DHT22;47242;48.158;-1.586;2023-04-03T20:31:21;10.70;59.80
61374;DHT22;47242;48.158;-1.586;2023-04-03T20:33:48;10.70;59.80
61374;DHT22;47242;48.158;-1.586;2023-04-03T20:36:15;10.70;60.00
61374;DHT22;47242;48.158;-1.586;2023-04-03T20:38:41;10.60;60.00
61374;DHT22;47242;48.158;-1.586;2023-04-03T20:41:08;10.60;60.10
61374;DHT22;47242;48.158;-1.586;2023-04-03T20:43:34;10.50;60.40
61374;DHT22;47242;48.158;-1.586;2023-04-03T20:46:01;10.50;60.50
61374;DHT22;47242;48.158;-1.586;2023-04-03T20:48:28;10.50;60.60
61374;DHT22;47242;48.158;-1.586;2023-04-03T20:50:54;10.50;60.60
61374;DHT22;47242;48.158;-1.586;2023-04-03T20:53:20;10.50;60.70
61374;DHT22;47242;48.158;-1.586;2023-04-03T20:55:56;10.40;60.80
61374;DHT22;47242;48.158;-1.586;2023-04-03T20:58:27;10.40;61.00
61374;DHT22;47242;48.158;-1.586;2023-04-03T21:00:59;10.30;61.30
61374;DHT22;47242;48.158;-1.586;2023-04-03T21:03:26;10.30;61.50
61374;DHT22;47242;48.158;-1.586;2023-04-03T21:20:03;10.20;62.20
61374;DHT22;47242;48.158;-1.586;2023-04-03T21:22:28;10.20;62.20
61374;DHT22;47242;48.158;-1.586;2023-04-03T21:24:56;10.10;62.40
61374;DHT22;47242;48.158;-1.586;2023-04-03T21:27:21;10.10;62.60
61374;DHT22;47242;48.158;-1.586;2023-04-03T21:29:47;10.00;62.60
